Time;durP1;ratioP1;P1;durP2;ratioP2;P2;SDS_P1;SDS_P2;PMS_P1;PMS_P2;Temp;Humidity;BMP_temperature;BMP_pressure;BME280_temperature;BME280_humidity;BME280_pressure;Samples;Min_cycle;Max_cycle;Signal;HPM_P1;HPM_P2
2023/07/04 00:01:26;;;;;;;7.32;3.40;;;;;;;;;;4934072;29;20032;-60
2023/07/04 00:03:55;;;;;;;9.73;3.00;;;;;;;;;;4939007;28;20055;-60
2023/07/04 00:06:23;;;;;;;8.63;3.30;;;;;;;;;;4935530;29;20031;-60
2023/07/04 00:08:50;;;;;;;6.22;3.17;;;;;;;;;;4935504;29;20066;-60
2023/07/04 00:11:19;;;;;;;5.95;3.05;;;;;;;;;;4934375;29;20070;-60
2023/07/04 00:13:47;;;;;;;6.82;3.28;;;;;;;;;;4936939;28;20393;-60
2023/07/04 00:16:14;;;;;;;6.90;3.33;;;;;;;;;;4935962;28;20513;-59
2023/07/04 00:18:41;;;;;;;8.05;3.47;;;;;;;;;;4934156;28;20054;-59
2023/07/04 00:21:14;;;;;;;6.70;3.17;;;;;;;;;;4934020;29;20078;-59
2023/07/04 00:23:45;;;;;;;9.63;2.97;;;;;;;;;;4932969;29;20035;-61
2023/07/04 00:26:16;;;;;;;5.82;2.58;;;;;;;;;;4935238;29;20043;-59
2023/07/04 00:28:43;;;;;;;7.63;2.58;;;;;;;;;;4947403;28;20043;-59
2023/07/04 00:31:14;;;;;;;5.60;2.80;;;;;;;;;;4950278;28;20039;-59
2023/07/04 00:33:40;;;;;;;6.95;2.85;;;;;;;;;;4932312;29;20057;-60
2023/07/04 00:36:09;;;;;;;7.15;2.97;;;;;;;;;;4934327;29;20067;-60
2023/07/04 00:38:37;;;;;;;7.30;2.55;;;;;;;;;;4936470;29;20409;-60
2023/07/04 00:41:09;;;;;;;8.98;2.88;;;;;;;;;;4951460;28;20040;-61
2023/07/04 00:44:20;;;;;;;6.75;2.80;;;;;;;;;;4932934;29;20548;-60
2023/07/04 00:46:54;;;;;;;5.82;2.70;;;;;;;;;;4927171;29;20414;-60
2023/07/04 00:49:37;;;;;;;9.05;2.95;;;;;;;;;;4931651;29;20043;-60
2023/07/04 00:52:15;;;;;;;8.35;2.88;;;;;;;;;;4936374;29;20048;-60
2023/07/04 00:54:50;;;;;;;6.97;2.47;;;;;;;;;;4933069;29;20050;-60
2023/07/04 00:57:17;;;;;;;5.72;2.95;;;;;;;;;;4932530;29;20035;-60
2023/07/04 00:59:46;;;;;;;9.25;2.97;;;;;;;;;;4932075;29;20027;-60
2023/07/04 01:02:16;;;;;;;5.47;2.80;;;;;;;;;;4930445;29;20046;-60
2023/07/04 01:04:45;;;;;;;8.52;3.13;;;;;;;;;;4948224;28;20047;-60
2023/07/04 01:07:35;;;;;;;6.85;3.35;;;;;;;;;;4932061;29;20043;-60
2023/07/04 01:10:12;;;;;;;10.23;3.08;;;;;;;;;;4932682;29;20059;-60
2023/07/04 01:12:39;;;;;;;8.38;3.42;;;;;;;;;;4947164;28;20043;-59
2023/07/04 01:15:07;;;;;;;9.80;3.25;;;;;;;;;;4932361;29;20059;-59
2023/07/04 01:17:35;;;;;;;7.68;3.22;;;;;;;;;;4935084;29;20494;-59
2023/07/04 01:20:06;;;;;;;9.77;3.70;;;;;;;;;;4946071;28;20520;-59
2023/07/04 01:22:50;;;;;;;12.95;3.28;;;;;;;;;;4931280;29;20052;-60
2023/07/04 01:25:31;;;;;;;7.28;3.53;;;;;;;;;;4932220;29;20039;-60
2023/07/04 01:28:02;;;;;;;8.45;3.13;;;;;;;;;;4928213;29;20048;-60
2023/07/04 01:30:33;;;;;;;8.23;3.28;;;;;;;;;;4934713;29;20044;-59
2023/07/04 01:33:00;;;;;;;12.80;3.42;;;;;;;;;;4944913;28;20051;-59
2023/07/04 01:35:27;;;;;;;8.57;3.30;;;;;;;;;;4933230;29;20054;-59
2023/07/04 01:37:54;;;;;;;8.85;3.45;;;;;;;;;;4933028;29;20054;-60
2023/07/04 01:40:20;;;;;;;10.30;3.60;;;;;;;;;;4934525;29;20516;-61
2023/07/04 01:42:48;;;;;;;7.72;3.20;;;;;;;;;;4946361;28;20199;-60
2023/07/04 01:45:15;;;;;;;8.20;3.33;;;;;;;;;;4934000;28;20055;-60
2023/07/04 01:47:41;;;;;;;9.13;3.58;;;;;;;;;;4931354;29;20051;-60
2023/07/04 01:50:09;;;;;;;11.60;3.90;;;;;;;;;;4931843;29;20398;-60
2023/07/04 01:52:36;;;;;;;10.82;4.13;;;;;;;;;;4931369;29;20039;-59
2023/07/04 01:55:02;;;;;;;10.30;3.40;;;;;;;;;;4946328;28;20055;-60
2023/07/04 01:57:29;;;;;;;9.88;4.13;;;;;;;;;;4931201;29;20052;-59
2023/07/04 01:59:55;;;;;;;12.15;4.00;;;;;;;;;;4948798;28;20110;-60
2023/07/04 02:02:22;;;;;;;30.05;4.60;;;;;;;;;;4946554;28;20035;-59
2023/07/04 02:04:48;;;;;;;10.23;4.00;;;;;;;;;;4945986;28;20471;-60
2023/07/04 02:07:14;;;;;;;9.38;3.42;;;;;;;;;;4931316;29;20036;-59
2023/07/04 02:09:42;;;;;;;9.10;3.70;;;;;;;;;;4932655;28;20055;-59
2023/07/04 02:12:09;;;;;;;15.27;4.15;;;;;;;;;;4931731;29;20524;-60
2023/07/04 02:14:36;;;;;;;8.73;3.50;;;;;;;;;;4935231;29;20051;-59
2023/07/04 02:17:02;;;;;;;8.38;3.55;;;;;;;;;;4935389;29;20525;-59
2023/07/04 02:19:28;;;;;;;7.95;3.28;;;;;;;;;;4935897;29;20063;-59
2023/07/04 02:21:54;;;;;;;7.55;3.42;;;;;;;;;;4950310;28;20054;-59
2023/07/04 02:24:20;;;;;;;12.93;3.95;;;;;;;;;;4934477;29;20058;-59
2023/07/04 02:26:46;;;;;;;11.02;3.78;;;;;;;;;;4938836;28;20047;-59
2023/07/04 02:29:13;;;;;;;11.43;3.88;;;;;;;;;;4935629;29;20035;-59
2023/07/04 02:31:39;;;;;;;11.68;3.83;;;;;;;;;;4952879;28;20040;-59
2023/07/04 02:34:05;;;;;;;10.32;3.45;;;;;;;;;;4934134;29;20050;-59
2023/07/04 02:36:33;;;;;;;10.20;3.90;;;;;;;;;;4933792;29;20036;-60
2023/07/04 02:38:59;;;;;;;7.18;3.45;;;;;;;;;;4952048;28;20043;-59
2023/07/04 02:41:25;;;;;;;10.10;3.97;;;;;;;;;;4934298;29;20050;-60
2023/07/04 02:43:53;;;;;;;8.20;3.65;;;;;;;;;;4948905;28;20044;-60
2023/07/04 02:46:20;;;;;;;8.40;3.53;;;;;;;;;;4934053;29;20047;-59
2023/07/04 02:48:49;;;;;;;8.02;3.40;;;;;;;;;;4938616;29;20074;-60
2023/07/04 02:51:17;;;;;;;8.57;3.85;;;;;;;;;;4951645;28;20047;-60
2023/07/04 02:53:44;;;;;;;8.15;3.72;;;;;;;;;;4934385;29;20048;-59
2023/07/04 02:56:11;;;;;;;13.20;3.80;;;;;;;;;;4935085;28;20043;-59
2023/07/04 02:58:38;;;;;;;9.35;3.42;;;;;;;;;;4933470;29;20040;-59
2023/07/04 03:01:04;;;;;;;7.20;4.10;;;;;;;;;;4935068;29;20043;-59
2023/07/04 03:03:31;;;;;;;7.93;3.55;;;;;;;;;;4947819;28;20520;-59
2023/07/04 03:06:01;;;;;;;6.50;3.10;;;;;;;;;;4933320;29;20516;-59
2023/07/04 03:08:28;;;;;;;7.80;3.17;;;;;;;;;;4933542;29;20038;-59
2023/07/04 03:10:55;;;;;;;6.95;2.90;;;;;;;;;;4935227;28;20055;-59
2023/07/04 03:13:24;;;;;;;5.05;2.67;;;;;;;;;;4950265;28;20039;-59
2023/07/04 03:15:50;;;;;;;6.57;2.72;;;;;;;;;;4936198;29;20051;-59
2023/07/04 03:18:17;;;;;;;6.45;2.92;;;;;;;;;;4949492;28;20062;-59
2023/07/04 03:20:44;;;;;;;7.00;3.10;;;;;;;;;;4936271;28;20526;-59
2023/07/04 03:23:10;;;;;;;4.72;2.83;;;;;;;;;;4947565;28;20058;-59
2023/07/04 03:25:37;;;;;;;6.03;2.65;;;;;;;;;;4951444;28;20058;-59
2023/07/04 03:28:04;;;;;;;5.55;2.47;;;;;;;;;;4935797;29;20485;-59
2023/07/04 03:30:30;;;;;;;6.03;2.70;;;;;;;;;;4945009;28;20036;-59
2023/07/04 03:33:06;;;;;;;5.07;2.50;;;;;;;;;;4947977;28;20049;-59
2023/07/04 03:35:32;;;;;;;9.50;3.92;;;;;;;;;;4949111;28;20047;-60
2023/07/04 03:37:58;;;;;;;8.65;3.67;;;;;;;;;;4949642;28;20497;-61
2023/07/04 03:40:25;;;;;;;3.97;2.75;;;;;;;;;;4933784;29;20028;-60
2023/07/04 03:42:51;;;;;;;3.22;2.35;;;;;;;;;;4949996;28;20031;-59
2023/07/04 03:45:17;;;;;;;3.60;2.05;;;;;;;;;;4933642;29;20035;-60
2023/07/04 03:47:45;;;;;;;6.30;2.75;;;;;;;;;;4948383;28;20046;-60
2023/07/04 03:50:14;;;;;;;4.38;2.40;;;;;;;;;;4916640;29;20480;-59
2023/07/04 03:52:44;;;;;;;4.97;2.28;;;;;;;;;;4947754;28;20078;-60
2023/07/04 03:55:10;;;;;;;3.80;2.10;;;;;;;;;;4950313;28;20044;-60
2023/07/04 03:57:36;;;;;;;8.88;4.38;;;;;;;;;;4935060;29;20046;-59
2023/07/04 04:00:05;;;;;;;5.18;2.75;;;;;;;;;;4948559;28;20027;-60
2023/07/04 04:02:52;;;;;;;3.97;2.40;;;;;;;;;;4934802;29;20035;-60
2023/07/04 04:05:19;;;;;;;3.25;2.38;;;;;;;;;;4936907;28;20063;-60
2023/07/04 04:07:48;;;;;;;3.53;2.20;;;;;;;;;;4949065;28;20043;-60
2023/07/04 04:10:18;;;;;;;4.85;2.40;;;;;;;;;;4933972;29;20493;-60
2023/07/04 04:12:44;;;;;;;;;;;;;;;;;;4948130;28;20062;-60
2023/07/04 04:15:11;;;;;;;3.65;2.00;;;;;;;;;;4937216;29;20427;-60
2023/07/04 04:17:37;;;;;;;3.03;2.08;;;;;;;;;;4934115;29;20036;-60
2023/07/04 04:20:06;;;;;;;5.30;2.38;;;;;;;;;;4932316;28;20055;-60
2023/07/04 04:22:33;;;;;;;4.57;2.20;;;;;;;;;;4947277;28;20036;-59
2023/07/04 04:24:59;;;;;;;4.88;2.45;;;;;;;;;;4934191;29;20520;-60
2023/07/04 04:27:30;;;;;;;2.95;1.98;;;;;;;;;;4934102;29;20034;-61
2023/07/04 04:29:57;;;;;;;4.38;1.83;;;;;;;;;;4934129;29;20038;-60
2023/07/04 04:32:23;;;;;;;4.03;1.95;;;;;;;;;;4931842;29;20038;-60
2023/07/04 04:34:49;;;;;;;3.38;1.88;;;;;;;;;;4933188;29;20055;-60
2023/07/04 04:37:16;;;;;;;4.88;2.40;;;;;;;;;;4931767;29;20062;-60
2023/07/04 04:39:43;;;;;;;4.20;2.40;;;;;;;;;;4936868;28;20063;-59
2023/07/04 04:42:13;;;;;;;3.88;2.00;;;;;;;;;;4933103;29;20058;-59
2023/07/04 04:44:42;;;;;;;4.50;1.95;;;;;;;;;;4934286;28;20533;-59
2023/07/04 04:47:08;;;;;;;3.55;2.05;;;;;;;;;;4933403;29;20042;-60
2023/07/04 04:49:35;;;;;;;5.90;2.00;;;;;;;;;;4933753;29;20378;-59
2023/07/04 04:52:01;;;;;;;3.47;1.95;;;;;;;;;;4933235;29;20042;-58
2023/07/04 04:54:27;;;;;;;2.97;2.28;;;;;;;;;;4932351;29;20044;-60
2023/07/04 04:57:00;;;;;;;5.20;2.30;;;;;;;;;;4936054;29;20529;-60
2023/07/04 04:59:26;;;;;;;5.95;2.40;;;;;;;;;;4932432;29;20043;-60
2023/07/04 05:01:52;;;;;;;5.22;2.20;;;;;;;;;;4933393;28;20043;-60
2023/07/04 05:04:18;;;;;;;6.50;2.58;;;;;;;;;;4932315;29;20043;-60
2023/07/04 05:06:45;;;;;;;5.03;2.55;;;;;;;;;;4930596;29;20051;-60
2023/07/04 05:09:11;;;;;;;4.93;2.85;;;;;;;;;;4932735;29;20040;-58
2023/07/04 05:11:37;;;;;;;5.15;2.55;;;;;;;;;;4932580;29;20031;-60
2023/07/04 05:14:04;;;;;;;5.55;2.20;;;;;;;;;;4931833;29;20036;-60
2023/07/04 05:16:30;;;;;;;3.00;2.15;;;;;;;;;;4947285;28;20035;-61
2023/07/04 05:18:56;;;;;;;5.15;2.58;;;;;;;;;;4932472;29;20452;-59
2023/07/04 05:21:23;;;;;;;4.38;2.40;;;;;;;;;;4932337;28;20057;-59
2023/07/04 05:23:51;;;;;;;3.70;1.98;;;;;;;;;;4931599;29;20044;-60
2023/07/04 05:26:23;;;;;;;4.35;2.17;;;;;;;;;;4930841;29;20477;-62
2023/07/04 05:28:52;;;;;;;6.85;2.70;;;;;;;;;;4932491;29;20408;-61
2023/07/04 05:31:20;;;;;;;4.50;2.40;;;;;;;;;;4931956;29;20034;-61
2023/07/04 05:33:47;;;;;;;7.78;2.63;;;;;;;;;;4931519;29;20071;-59
2023/07/04 05:36:17;;;;;;;4.78;2.50;;;;;;;;;;4931881;29;20043;-59
2023/07/04 05:38:47;;;;;;;4.93;2.75;;;;;;;;;;4935561;28;20509;-59
2023/07/04 05:41:15;;;;;;;4.40;2.50;;;;;;;;;;4932131;29;20409;-60
2023/07/04 05:43:41;;;;;;;8.13;2.70;;;;;;;;;;4929995;29;20032;-60
2023/07/04 05:46:09;;;;;;;4.07;2.70;;;;;;;;;;4927551;29;20075;-60
2023/07/04 05:48:35;;;;;;;8.95;2.80;;;;;;;;;;4935791;29;20043;-60
2023/07/04 05:51:05;;;;;;;5.53;2.78;;;;;;;;;;4949654;28;20413;-59
2023/07/04 05:53:33;;;;;;;12.07;2.97;;;;;;;;;;4936096;28;20039;-60
2023/07/04 05:56:06;;;;;;;7.20;2.63;;;;;;;;;;4936240;28;20092;-60
2023/07/04 05:58:33;;;;;;;6.30;2.72;;;;;;;;;;4934996;29;20052;-60
2023/07/04 06:01:11;;;;;;;6.55;3.08;;;;;;;;;;4935998;29;20043;-60
2023/07/04 06:03:38;;;;;;;7.55;2.85;;;;;;;;;;4950092;28;20043;-60
2023/07/04 06:06:06;;;;;;;6.85;2.97;;;;;;;;;;4935496;29;20084;-60
2023/07/04 06:08:33;;;;;;;5.53;2.78;;;;;;;;;;4936701;28;20052;-60
2023/07/04 06:11:04;;;;;;;5.72;2.75;;;;;;;;;;4935768;29;20035;-59
2023/07/04 06:13:31;;;;;;;5.53;2.83;;;;;;;;;;4934363;29;20031;-60
2023/07/04 06:15:58;;;;;;;6.97;3.05;;;;;;;;;;4935477;29;20394;-59
2023/07/04 06:18:25;;;;;;;4.90;2.45;;;;;;;;;;4935719;29;20051;-60
2023/07/04 06:20:51;;;;;;;9.43;4.05;;;;;;;;;;4935413;29;20237;-60
2023/07/04 06:23:21;;;;;;;7.05;3.42;;;;;;;;;;4933702;29;20031;-60
2023/07/04 06:25:56;;;;;;;8.68;3.80;;;;;;;;;;4935283;29;20512;-60
2023/07/04 06:28:22;;;;;;;11.13;3.30;;;;;;;;;;4935439;29;20382;-59
2023/07/04 06:30:48;;;;;;;8.23;2.80;;;;;;;;;;4935733;28;20052;-59
2023/07/04 06:33:15;;;;;;;9.73;3.30;;;;;;;;;;4933668;29;20046;-60
2023/07/04 06:35:42;;;;;;;9.18;2.95;;;;;;;;;;4935362;28;20059;-59
2023/07/04 06:38:09;;;;;;;6.88;3.10;;;;;;;;;;4939043;29;20054;-59
2023/07/04 06:40:36;;;;;;;6.45;3.42;;;;;;;;;;4936319;29;20044;-60
2023/07/04 06:43:04;;;;;;;8.50;3.00;;;;;;;;;;4938183;28;20062;-60
2023/07/04 06:45:35;;;;;;;7.28;3.03;;;;;;;;;;4935827;29;20036;-60
2023/07/04 06:48:01;;;;;;;8.75;2.90;;;;;;;;;;4936174;29;20066;-59
2023/07/04 06:50:28;;;;;;;6.15;3.20;;;;;;;;;;4941064;29;20031;-60
2023/07/04 06:52:54;;;;;;;8.25;4.80;;;;;;;;;;4940894;28;20058;-60
2023/07/04 06:55:21;;;;;;;10.07;4.13;;;;;;;;;;4950560;28;20035;-62
2023/07/04 06:57:47;;;;;;;11.95;5.00;;;;;;;;;;4937304;28;20044;-62
2023/07/04 07:00:14;;;;;;;13.48;3.83;;;;;;;;;;4936601;29;20088;-62
2023/07/04 07:02:40;;;;;;;11.57;3.30;;;;;;;;;;4935753;28;20168;-62
2023/07/04 07:05:06;;;;;;;8.68;3.75;;;;;;;;;;4940951;29;20044;-60
2023/07/04 07:07:33;;;;;;;19.95;8.63;;;;;;;;;;4935298;29;20418;-60
2023/07/04 07:09:59;;;;;;;8.82;3.90;;;;;;;;;;4941680;28;20055;-61
2023/07/04 07:12:25;;;;;;;7.88;3.40;;;;;;;;;;4935640;28;20051;-58
2023/07/04 07:14:51;;;;;;;6.95;2.90;;;;;;;;;;4940198;29;20034;-62
2023/07/04 07:17:18;;;;;;;8.75;3.50;;;;;;;;;;4935305;29;20040;-63
2023/07/04 07:19:44;;;;;;;6.55;3.35;;;;;;;;;;4938729;28;20054;-62
2023/07/04 07:22:10;;;;;;;9.23;3.58;;;;;;;;;;4935815;29;20028;-61
2023/07/04 07:24:39;;;;;;;10.13;3.60;;;;;;;;;;4934675;29;20042;-60
2023/07/04 07:27:08;;;;;;;9.20;3.40;;;;;;;;;;4933672;29;20035;-60
2023/07/04 07:29:34;;;;;;;7.53;3.33;;;;;;;;;;4934853;28;20409;-59
2023/07/04 07:32:05;;;;;;;9.45;3.47;;;;;;;;;;4933882;29;20047;-59
2023/07/04 07:34:32;;;;;;;8.35;3.60;;;;;;;;;;4946121;28;20441;-59
2023/07/04 07:36:58;;;;;;;12.25;3.63;;;;;;;;;;4926207;29;20031;-60
2023/07/04 07:39:24;;;;;;;13.45;3.75;;;;;;;;;;4933563;29;20040;-59
2023/07/04 07:41:50;;;;;;;11.32;3.92;;;;;;;;;;4932088;29;20031;-60
2023/07/04 07:44:16;;;;;;;10.82;4.10;;;;;;;;;;4923065;29;20043;-62
2023/07/04 07:46:44;;;;;;;15.52;3.88;;;;;;;;;;4925779;29;20417;-59
2023/07/04 07:49:11;;;;;;;10.30;3.95;;;;;;;;;;4926490;28;20048;-61
2023/07/04 07:51:38;;;;;;;10.77;4.00;;;;;;;;;;4927812;28;20040;-60
2023/07/04 07:54:06;;;;;;;9.65;4.03;;;;;;;;;;4933009;29;20058;-61
2023/07/04 07:56:41;;;;;;;8.30;3.70;;;;;;;;;;4933893;29;20035;-61
2023/07/04 07:59:07;;;;;;;13.55;4.47;;;;;;;;;;4933605;28;20437;-63
2023/07/04 08:01:34;;;;;;;15.73;5.00;;;;;;;;;;4948002;28;20024;-59
2023/07/04 08:04:02;;;;;;;10.20;4.53;;;;;;;;;;4947475;28;20040;-61
2023/07/04 08:06:29;;;;;;;15.60;5.03;;;;;;;;;;4948203;28;20148;-60
2023/07/04 08:08:58;;;;;;;15.27;4.82;;;;;;;;;;4933507;29;20050;-60
2023/07/04 08:11:25;;;;;;;12.70;4.47;;;;;;;;;;4933366;29;20036;-60
2023/07/04 08:13:53;;;;;;;14.95;4.72;;;;;;;;;;4933589;28;20048;-60
2023/07/04 08:16:43;;;;;;;14.80;4.40;;;;;;;;;;4933471;29;20031;-60
2023/07/04 08:19:09;;;;;;;15.48;4.43;;;;;;;;;;4930020;29;20063;-60
2023/07/04 08:21:36;;;;;;;14.93;4.68;;;;;;;;;;4934227;28;20043;-60
2023/07/04 08:24:03;;;;;;;12.95;4.35;;;;;;;;;;4932426;29;20048;-60
2023/07/04 08:26:29;;;;;;;14.20;5.35;;;;;;;;;;4932446;29;20055;-60
2023/07/04 08:28:56;;;;;;;13.85;5.32;;;;;;;;;;4933644;29;20031;-60
2023/07/04 08:31:23;;;;;;;15.63;6.30;;;;;;;;;;4933318;29;20036;-59
2023/07/04 08:33:49;;;;;;;18.00;4.80;;;;;;;;;;4932043;29;20070;-60
2023/07/04 08:36:17;;;;;;;13.35;4.60;;;;;;;;;;4932852;29;20406;-60
2023/07/04 08:38:45;;;;;;;15.50;5.05;;;;;;;;;;4934502;29;20521;-60
2023/07/04 08:41:30;;;;;;;15.15;5.15;;;;;;;;;;4933362;29;20028;-59
2023/07/04 08:44:02;;;;;;;18.52;5.60;;;;;;;;;;4932682;29;20039;-59
2023/07/04 08:46:50;;;;;;;14.77;5.30;;;;;;;;;;4933465;29;20036;-59
2023/07/04 08:49:40;;;;;;;17.35;5.45;;;;;;;;;;4933654;29;20042;-60
2023/07/04 08:52:09;;;;;;;14.13;5.35;;;;;;;;;;4932518;29;20035;-59
2023/07/04 08:54:36;;;;;;;19.27;6.45;;;;;;;;;;4933162;29;20093;-61
2023/07/04 08:57:17;;;;;;;24.77;6.70;;;;;;;;;;4933421;29;20050;-59
2023/07/04 08:59:46;;;;;;;20.58;6.20;;;;;;;;;;4932716;29;20115;-59
2023/07/04 09:02:12;;;;;;;;;;;;;;;;;;4933333;29;20047;-59
2023/07/04 09:04:47;;;;;;;18.42;5.65;;;;;;;;;;4933270;29;20356;-61
2023/07/04 09:07:18;;;;;;;21.92;6.32;;;;;;;;;;4933411;28;20056;-61
2023/07/04 09:09:56;;;;;;;16.30;5.55;;;;;;;;;;4932518;29;20039;-61
2023/07/04 09:12:22;;;;;;;21.70;6.28;;;;;;;;;;4933171;29;20035;-60
2023/07/04 09:14:59;;;;;;;16.15;5.57;;;;;;;;;;4933755;29;20055;-61
2023/07/04 09:17:42;;;;;;;16.70;6.25;;;;;;;;;;4931682;29;20035;-62
2023/07/04 09:20:09;;;;;;;18.58;5.85;;;;;;;;;;4932565;29;20485;-61
2023/07/04 09:22:36;;;;;;;15.60;5.85;;;;;;;;;;4931787;29;20040;-60
2023/07/04 09:25:04;;;;;;;18.27;6.82;;;;;;;;;;4932248;29;20047;-59
2023/07/04 09:27:31;;;;;;;17.52;6.65;;;;;;;;;;4932695;29;20042;-60
2023/07/04 09:29:57;;;;;;;18.73;6.40;;;;;;;;;;4932843;29;20027;-59
2023/07/04 09:32:24;;;;;;;19.15;6.20;;;;;;;;;;4932294;29;20056;-60
2023/07/04 09:35:01;;;;;;;15.25;5.80;;;;;;;;;;4932370;29;20055;-59
2023/07/04 09:37:28;;;;;;;20.80;6.40;;;;;;;;;;4933380;29;20556;-59
2023/07/04 09:39:57;;;;;;;20.17;6.10;;;;;;;;;;4934203;29;20027;-59
2023/07/04 09:42:32;;;;;;;23.45;7.22;;;;;;;;;;4931923;29;20035;-59
2023/07/04 09:45:05;;;;;;;16.88;5.97;;;;;;;;;;4930293;29;20039;-59
2023/07/04 09:47:33;;;;;;;25.73;6.28;;;;;;;;;;4932382;29;20422;-59
2023/07/04 09:50:27;;;;;;;18.00;6.35;;;;;;;;;;4932736;28;20059;-62
2023/07/04 09:53:03;;;;;;;19.35;6.82;;;;;;;;;;4931728;29;20143;-58
2023/07/04 09:55:31;;;;;;;21.52;7.07;;;;;;;;;;4932468;28;20418;-61
2023/07/04 09:58:16;;;;;;;23.77;6.50;;;;;;;;;;4930053;29;20036;-60
2023/07/04 10:00:59;;;;;;;16.67;6.45;;;;;;;;;;4931170;29;20047;-60
2023/07/04 10:03:25;;;;;;;19.45;7.28;;;;;;;;;;4931824;28;20052;-60
2023/07/04 10:05:52;;;;;;;22.02;7.60;;;;;;;;;;4932242;28;20494;-61
2023/07/04 10:08:18;;;;;;;20.90;7.03;;;;;;;;;;4932204;29;20042;-60
2023/07/04 10:10:54;;;;;;;22.95;6.70;;;;;;;;;;4931875;29;20043;-61
2023/07/04 10:13:25;;;;;;;13.45;6.43;;;;;;;;;;4931795;29;20406;-61
2023/07/04 10:15:52;;;;;;;16.13;6.13;;;;;;;;;;4932506;28;20051;-61
2023/07/04 10:18:39;;;;;;;17.67;5.72;;;;;;;;;;4931252;29;20047;-61
2023/07/04 10:21:06;;;;;;;16.90;6.28;;;;;;;;;;4930485;28;20052;-62
2023/07/04 10:23:34;;;;;;;17.58;6.45;;;;;;;;;;4931371;29;20054;-63
2023/07/04 10:26:01;;;;;;;16.27;5.97;;;;;;;;;;4931337;29;20052;-61
2023/07/04 10:28:29;;;;;;;14.88;6.18;;;;;;;;;;4932676;28;20043;-60
2023/07/04 10:31:14;;;;;;;14.70;5.93;;;;;;;;;;4931348;29;20047;-61
2023/07/04 10:33:47;;;;;;;14.50;5.50;;;;;;;;;;4930781;29;20067;-60
2023/07/04 10:36:19;;;;;;;15.68;5.15;;;;;;;;;;4933253;29;20044;-61
2023/07/04 10:38:48;;;;;;;16.52;6.50;;;;;;;;;;4931647;29;20043;-60
2023/07/04 10:41:39;;;;;;;21.98;9.75;;;;;;;;;;4935133;29;20138;-60
2023/07/04 10:44:13;;;;;;;14.23;5.72;;;;;;;;;;4933391;29;20043;-60
2023/07/04 10:46:48;;;;;;;17.15;5.40;;;;;;;;;;4935188;29;20055;-60
2023/07/04 10:49:20;;;;;;;13.00;5.78;;;;;;;;;;4935275;29;20036;-59
2023/07/04 10:51:52;;;;;;;17.42;5.10;;;;;;;;;;4933033;29;20048;-60
2023/07/04 10:54:19;;;;;;;15.32;5.38;;;;;;;;;;4932852;29;20043;-60
2023/07/04 10:57:08;;;;;;;17.33;9.13;;;;;;;;;;4936300;28;20063;-60
2023/07/04 10:59:41;;;;;;;13.55;5.95;;;;;;;;;;4935101;29;20055;-61
2023/07/04 11:02:22;;;;;;;12.23;5.65;;;;;;;;;;4935265;28;20050;-60
2023/07/04 11:04:49;;;;;;;13.32;5.38;;;;;;;;;;4934289;29;20051;-58
2023/07/04 11:07:24;;;;;;;13.55;5.22;;;;;;;;;;4935026;29;20477;-60
2023/07/04 11:09:55;;;;;;;10.40;5.30;;;;;;;;;;4935261;28;20055;-59
2023/07/04 11:12:26;;;;;;;11.43;4.72;;;;;;;;;;4933066;29;20405;-59
2023/07/04 11:15:00;;;;;;;10.48;4.63;;;;;;;;;;4935004;29;20048;-59
2023/07/04 11:17:30;;;;;;;12.85;4.78;;;;;;;;;;4934088;29;20046;-59
2023/07/04 11:20:12;;;;;;;11.68;4.93;;;;;;;;;;4933823;29;20050;-59
2023/07/04 11:22:52;;;;;;;12.63;5.20;;;;;;;;;;4934251;28;20039;-58
2023/07/04 11:25:36;;;;;;;10.50;4.80;;;;;;;;;;4934062;29;20031;-58
2023/07/04 11:28:17;;;;;;;10.95;4.60;;;;;;;;;;4935377;29;20051;-59
2023/07/04 11:30:47;;;;;;;11.55;4.82;;;;;;;;;;4934787;29;20059;-59
2023/07/04 11:33:41;;;;;;;10.80;4.60;;;;;;;;;;4934301;28;20387;-58
2023/07/04 11:36:17;;;;;;;9.27;4.53;;;;;;;;;;4934192;29;20050;-60
2023/07/04 11:38:51;;;;;;;8.75;4.97;;;;;;;;;;4938022;28;20426;-60
2023/07/04 11:41:24;;;;;;;10.32;4.30;;;;;;;;;;4947498;28;20085;-59
2023/07/04 11:43:51;;;;;;;10.07;4.47;;;;;;;;;;4933129;29;20675;-60
2023/07/04 11:46:26;;;;;;;14.35;5.45;;;;;;;;;;4932592;29;20039;-60
2023/07/04 11:48:55;;;;;;;10.30;4.85;;;;;;;;;;4934789;28;20051;-60
2023/07/04 11:51:24;;;;;;;12.32;4.68;;;;;;;;;;4933815;28;20423;-61
2023/07/04 11:53:53;;;;;;;12.60;4.78;;;;;;;;;;4929512;29;20055;-61
2023/07/04 11:56:34;;;;;;;12.52;4.68;;;;;;;;;;4934143;29;20042;-61
2023/07/04 11:59:18;;;;;;;10.30;4.40;;;;;;;;;;4934511;29;20036;-60
2023/07/04 12:02:03;;;;;;;10.57;4.40;;;;;;;;;;4931825;29;20513;-60
2023/07/04 12:04:32;;;;;;;8.27;3.72;;;;;;;;;;4933272;29;20413;-62
2023/07/04 12:07:15;;;;;;;11.05;4.32;;;;;;;;;;4933993;29;20409;-60
2023/07/04 12:09:50;;;;;;;9.20;4.25;;;;;;;;;;4934306;29;20059;-61
2023/07/04 12:12:25;;;;;;;12.13;4.47;;;;;;;;;;4933174;29;20040;-60
2023/07/04 12:15:06;;;;;;;9.60;4.75;;;;;;;;;;4933469;29;20036;-61
2023/07/04 12:17:33;;;;;;;20.73;4.95;;;;;;;;;;4928592;29;20036;-62
2023/07/04 12:20:03;;;;;;;18.38;4.50;;;;;;;;;;4933238;29;20044;-62
2023/07/04 12:22:29;;;;;;;8.57;4.15;;;;;;;;;;4932673;29;20047;-59
2023/07/04 12:25:18;;;;;;;7.95;4.43;;;;;;;;;;4933619;29;20055;-62
2023/07/04 12:27:45;;;;;;;10.45;4.38;;;;;;;;;;4933880;29;20062;-62
2023/07/04 12:30:13;;;;;;;13.38;4.25;;;;;;;;;;4934485;28;20039;-62
2023/07/04 12:32:39;;;;;;;10.10;4.47;;;;;;;;;;4932139;28;20043;-64
2023/07/04 12:35:06;;;;;;;9.00;4.50;;;;;;;;;;4932999;29;20031;-63
2023/07/04 12:37:39;;;;;;;7.30;4.22;;;;;;;;;;4933968;29;20048;-63
2023/07/04 12:40:13;;;;;;;12.43;4.32;;;;;;;;;;4933085;29;20042;-64
2023/07/04 12:42:40;;;;;;;8.07;4.40;;;;;;;;;;4933031;28;20044;-65
2023/07/04 12:45:08;;;;;;;11.65;5.30;;;;;;;;;;4933236;29;20375;-62
2023/07/04 12:47:35;;;;;;;8.65;4.80;;;;;;;;;;4932737;29;20048;-62
2023/07/04 12:50:02;;;;;;;9.82;4.88;;;;;;;;;;4931786;29;20044;-61
2023/07/04 12:52:32;;;;;;;7.53;3.67;;;;;;;;;;4932531;28;20047;-61
2023/07/04 12:55:01;;;;;;;12.20;4.38;;;;;;;;;;4932253;29;20047;-65
2023/07/04 12:57:29;;;;;;;11.05;4.78;;;;;;;;;;4931584;29;20039;-61
2023/07/04 13:00:13;;;;;;;15.23;4.53;;;;;;;;;;4933716;28;20405;-62
2023/07/04 13:02:44;;;;;;;11.02;4.75;;;;;;;;;;4931904;29;20043;-61
2023/07/04 13:05:11;;;;;;;10.40;4.18;;;;;;;;;;4932938;28;20060;-62
2023/07/04 13:07:38;;;;;;;9.00;4.47;;;;;;;;;;4932227;29;20058;-61
2023/07/04 13:10:04;;;;;;;12.82;4.70;;;;;;;;;;4933359;29;20042;-62
2023/07/04 13:12:34;;;;;;;11.77;4.22;;;;;;;;;;4931949;29;20856;-62
2023/07/04 13:15:08;;;;;;;11.20;4.57;;;;;;;;;;4931739;29;20039;-62
2023/07/04 13:17:35;;;;;;;8.13;4.45;;;;;;;;;;4933304;28;20055;-61
2023/07/04 13:20:15;;;;;;;6.15;3.63;;;;;;;;;;4932856;29;20052;-61
2023/07/04 13:22:42;;;;;;;6.88;3.45;;;;;;;;;;4932768;28;20059;-62
2023/07/04 13:25:22;;;;;;;8.60;3.80;;;;;;;;;;4932781;29;20032;-61
2023/07/04 13:27:48;;;;;;;10.63;4.00;;;;;;;;;;4931162;29;20116;-61
2023/07/04 13:30:28;;;;;;;8.30;3.85;;;;;;;;;;4932967;29;20059;-61
2023/07/04 13:32:55;;;;;;;7.97;3.95;;;;;;;;;;4932332;29;20059;-61
2023/07/04 13:35:27;;;;;;;10.02;3.80;;;;;;;;;;4932120;29;20457;-61
2023/07/04 13:37:53;;;;;;;7.95;4.00;;;;;;;;;;4933895;29;20073;-61
2023/07/04 13:40:20;;;;;;;8.60;4.15;;;;;;;;;;4932645;29;20031;-62
2023/07/04 13:50:14;;;;;;;10.52;3.80;;;;;;;;;;1470790;26;20147;-78
2023/07/04 13:52:42;;;;;;;13.25;4.15;;;;;;;;;;4963582;28;20065;-78
2023/07/04 13:55:12;;;;;;;8.50;3.80;;;;;;;;;;4958272;28;20050;-76
2023/07/04 13:57:38;;;;;;;5.32;3.40;;;;;;;;;;4955646;28;20057;-76
2023/07/04 14:00:05;;;;;;;6.93;3.65;;;;;;;;;;4956227;28;20049;-76
2023/07/04 14:02:33;;;;;;;7.57;3.50;;;;;;;;;;4986505;28;20043;-77
2023/07/04 14:05:02;;;;;;;10.80;3.80;;;;;;;;;;4975018;28;20030;-77
2023/07/04 14:07:29;;;;;;;5.90;3.08;;;;;;;;;;4943211;28;20122;-78
2023/07/04 14:09:55;;;;;;;9.13;5.70;;;;;;;;;;4958261;28;20045;-76
2023/07/04 14:12:24;;;;;;;8.30;3.65;;;;;;;;;;4992299;28;20058;-76
2023/07/04 14:14:52;;;;;;;10.27;4.20;;;;;;;;;;4976663;28;20041;-76
2023/07/04 14:17:21;;;;;;;7.82;3.58;;;;;;;;;;4960789;28;20046;-76
2023/07/04 14:19:47;;;;;;;9.63;3.72;;;;;;;;;;4964839;28;20039;-75
2023/07/04 14:22:13;;;;;;;5.80;3.35;;;;;;;;;;4973791;28;20037;-76
2023/07/04 14:24:39;;;;;;;7.03;3.60;;;;;;;;;;4977601;28;20038;-74
2023/07/04 14:27:08;;;;;;;8.63;3.70;;;;;;;;;;4960971;28;20046;-75
2023/07/04 14:29:34;;;;;;;5.50;3.22;;;;;;;;;;4975315;28;20030;-76
2023/07/04 14:32:00;;;;;;;6.35;3.40;;;;;;;;;;4994796;28;20041;-75
2023/07/04 14:34:26;;;;;;;5.85;3.22;;;;;;;;;;4962355;28;20045;-75
2023/07/04 14:36:55;;;;;;;6.65;3.15;;;;;;;;;;4991217;28;20314;-76
2023/07/04 14:39:29;;;;;;;5.03;3.25;;;;;;;;;;4978287;28;20125;-75
2023/07/04 14:42:00;;;;;;;6.75;3.40;;;;;;;;;;4985161;28;20069;-76
2023/07/04 14:44:28;;;;;;;7.05;3.17;;;;;;;;;;4972911;28;20121;-75
2023/07/04 14:46:59;;;;;;;7.20;3.33;;;;;;;;;;4971133;28;20038;-76
2023/07/04 14:49:30;;;;;;;7.50;3.70;;;;;;;;;;4966471;28;20039;-76
2023/07/04 14:52:05;;;;;;;6.82;3.53;;;;;;;;;;4989362;28;20050;-75
2023/07/04 14:54:35;;;;;;;7.72;3.92;;;;;;;;;;4991502;28;20042;-76
2023/07/04 14:57:03;;;;;;;7.80;3.70;;;;;;;;;;4965579;28;20042;-76
2023/07/04 15:03:49;;;;;;;7.00;3.22;;;;;;;;;;4990741;28;20502;-73
2023/07/04 15:06:16;;;;;;;6.85;3.47;;;;;;;;;;4990029;28;20057;-73